SBKP

Viracopos International Airport

Campinas, Brazil
TAF SBKP 220900Z 2212/2312 13010KT 8000 NSCTX30/2217Z TN17/2309Z BECMG 2218/2220 15010KT BECMG 2301/2303 11008KT BECMG 2308/2310 06005KT BECMG 2310/2312 03005KT RMK PHG
Issued Valid From Valid To
Sep-22 @ 09:00 UTC
(6 hours ago)
Sep-22 @ 12:00 UTC
(3 hours ago)
Sep-23 @ 12:00 UTC
(in 21 hours)
to
to
to
to
to
TAF SBKP 220900Z 2212/2312 13010KT 8000 NSCTX30/2217Z TN17/2309Z BECMG 2218/2220 15010KT BECMG 2301/2303 11008KT BECMG 2308/2310 06005KT BECMG 2310/2312 03005KT RMK PHG
Issued Sep-22 @ 09:00 UTC
(6 hours ago)
Valid From Sep-22 @ 12:00 UTC
(3 hours ago)
Valid To Sep-23 @ 12:00 UTC
(in 21 hours)
-
-
-
-
-